sensor_id;sensor_type;location;lat;lon;timestamp;pressure;altitude;pressure_sealevel;temperature;humidity
61710;BME280;47633;51.494;5.386;2022-10-16T00:01:12;100934.47;;;19.42;54.84
61710;BME280;47633;51.494;5.386;2022-10-16T00:03:39;100938.41;;;19.48;54.96
61710;BME280;47633;51.494;5.386;2022-10-16T00:06:04;100939.50;;;19.45;54.74
61710;BME280;47633;51.494;5.386;2022-10-16T00:08:30;100937.72;;;19.46;54.64
61710;BME280;47633;51.494;5.386;2022-10-16T00:11:07;100926.41;;;19.44;54.67
61710;BME280;47633;51.494;5.386;2022-10-16T00:13:34;100919.88;;;19.38;54.45
61710;BME280;47633;51.494;5.386;2022-10-16T00:16:01;100937.84;;;19.44;54.87
61710;BME280;47633;51.494;5.386;2022-10-16T00:18:27;100933.09;;;19.38;54.81
61710;BME280;47633;51.494;5.386;2022-10-16T00:20:53;100934.59;;;19.40;54.81
61710;BME280;47633;51.494;5.386;2022-10-16T00:23:19;100943.28;;;19.43;54.80
61710;BME280;47633;51.494;5.386;2022-10-16T00:25:45;100937.13;;;19.42;54.56
61710;BME280;47633;51.494;5.386;2022-10-16T00:28:18;100936.28;;;19.42;54.61
61710;BME280;47633;51.494;5.386;2022-10-16T00:30:44;100936.28;;;19.42;54.90
61710;BME280;47633;51.494;5.386;2022-10-16T00:33:09;100927.53;;;19.41;54.71
61710;BME280;47633;51.494;5.386;2022-10-16T00:35:34;100931.66;;;19.34;54.51
61710;BME280;47633;51.494;5.386;2022-10-16T00:37:59;100938.38;;;19.38;54.51
61710;BME280;47633;51.494;5.386;2022-10-16T00:40:25;100931.66;;;19.34;54.74
61710;BME280;47633;51.494;5.386;2022-10-16T00:42:50;100948.94;;;19.38;54.63
61710;BME280;47633;51.494;5.386;2022-10-16T00:45:15;100944.16;;;19.32;54.63
61710;BME280;47633;51.494;5.386;2022-10-16T00:47:45;100939.00;;;19.30;54.49
61710;BME280;47633;51.494;5.386;2022-10-16T00:52:51;100940.84;;;19.30;54.57
61710;BME280;47633;51.494;5.386;2022-10-16T00:55:17;100935.81;;;19.27;54.64
61710;BME280;47633;51.494;5.386;2022-10-16T00:57:43;100940.09;;;19.28;54.44
61710;BME280;47633;51.494;5.386;2022-10-16T01:00:13;100938.31;;;19.28;54.50
61710;BME280;47633;51.494;5.386;2022-10-16T01:02:39;100938.31;;;19.28;54.20
61710;BME280;47633;51.494;5.386;2022-10-16T01:05:05;100928.72;;;19.27;54.31
61710;BME280;47633;51.494;5.386;2022-10-16T01:07:49;100922.47;;;19.28;54.25
61710;BME280;47633;51.494;5.386;2022-10-16T01:10:35;100932.78;;;19.31;54.29
61710;BME280;47633;51.494;5.386;2022-10-16T01:13:11;100923.69;;;19.24;54.35
61710;BME280;47633;51.494;5.386;2022-10-16T01:15:55;100927.28;;;19.23;54.24
61710;BME280;47633;51.494;5.386;2022-10-16T01:18:34;100934.69;;;19.29;54.37
61710;BME280;47633;51.494;5.386;2022-10-16T01:21:29;100935.69;;;19.28;54.30
61710;BME280;47633;51.494;5.386;2022-10-16T01:24:17;100947.06;;;19.29;54.24
61710;BME280;47633;51.494;5.386;2022-10-16T01:29:53;100949.84;;;19.27;54.37
61710;BME280;47633;51.494;5.386;2022-10-16T01:34:56;100950.94;;;19.25;54.31
61710;BME280;47633;51.494;5.386;2022-10-16T01:38:12;100946.50;;;19.25;54.20
61710;BME280;47633;51.494;5.386;2022-10-16T01:40:45;100946.63;;;19.24;54.17
61710;BME280;47633;51.494;5.386;2022-10-16T01:43:19;100950.94;;;19.25;54.10
61710;BME280;47633;51.494;5.386;2022-10-16T01:45:46;100949.28;;;19.24;54.62
61710;BME280;47633;51.494;5.386;2022-10-16T01:48:14;100951.91;;;19.24;54.20
61710;BME280;47633;51.494;5.386;2022-10-16T01:50:44;100939.66;;;19.23;54.35
61710;BME280;47633;51.494;5.386;2022-10-16T01:53:12;100942.31;;;19.23;54.13
61710;BME280;47633;51.494;5.386;2022-10-16T01:55:44;100941.47;;;19.22;54.06
61710;BME280;47633;51.494;5.386;2022-10-16T01:58:13;100939.34;;;19.16;54.04
61710;BME280;47633;51.494;5.386;2022-10-16T02:00:42;100935.03;;;19.15;54.16
61710;BME280;47633;51.494;5.386;2022-10-16T02:03:11;100909.06;;;18.99;54.22
61710;BME280;47633;51.494;5.386;2022-10-16T02:05:50;100940.31;;;19.15;54.20
61710;BME280;47633;51.494;5.386;2022-10-16T02:08:17;100927.34;;;19.12;54.21
61710;BME280;47633;51.494;5.386;2022-10-16T02:10:42;100951.47;;;19.18;54.30
61710;BME280;47633;51.494;5.386;2022-10-16T02:13:18;100946.88;;;19.20;53.99
61710;BME280;47633;51.494;5.386;2022-10-16T02:15:46;100933.63;;;19.11;54.33
61710;BME280;47633;51.494;5.386;2022-10-16T02:18:12;100944.06;;;19.12;54.06
61710;BME280;47633;51.494;5.386;2022-10-16T02:20:48;100939.47;;;19.14;54.07
61710;BME280;47633;51.494;5.386;2022-10-16T02:23:21;100931.94;;;19.10;54.13
61710;BME280;47633;51.494;5.386;2022-10-16T02:25:50;100938.78;;;19.12;54.08
61710;BME280;47633;51.494;5.386;2022-10-16T02:28:27;100948.84;;;19.18;54.20
61710;BME280;47633;51.494;5.386;2022-10-16T02:30:59;100944.50;;;19.17;54.18
61710;BME280;47633;51.494;5.386;2022-10-16T02:33:27;100946.31;;;19.17;54.19
61710;BME280;47633;51.494;5.386;2022-10-16T02:35:54;100939.72;;;19.11;54.02
61710;BME280;47633;51.494;5.386;2022-10-16T02:38:20;100952.44;;;19.17;54.14
61710;BME280;47633;51.494;5.386;2022-10-16T02:40:47;100945.00;;;19.11;54.06
61710;BME280;47633;51.494;5.386;2022-10-16T02:43:12;100955.19;;;19.16;53.87
61710;BME280;47633;51.494;5.386;2022-10-16T02:45:38;100947.78;;;19.10;54.16
61710;BME280;47633;51.494;5.386;2022-10-16T02:48:04;100947.09;;;19.08;54.04
61710;BME280;47633;51.494;5.386;2022-10-16T02:50:29;100935.91;;;19.04;54.00
61710;BME280;47633;51.494;5.386;2022-10-16T02:52:55;100949.22;;;19.14;54.12
61710;BME280;47633;51.494;5.386;2022-10-16T02:55:20;100943.06;;;19.13;53.93
61710;BME280;47633;51.494;5.386;2022-10-16T02:57:45;100926.09;;;19.06;54.01
61710;BME280;47633;51.494;5.386;2022-10-16T03:00:13;100939.59;;;19.13;53.88
61710;BME280;47633;51.494;5.386;2022-10-16T03:02:39;100942.75;;;19.07;53.90
61710;BME280;47633;51.494;5.386;2022-10-16T03:05:04;100940.75;;;18.99;54.02
61710;BME280;47633;51.494;5.386;2022-10-16T03:07:30;100960.03;;;19.11;53.65
61710;BME280;47633;51.494;5.386;2022-10-16T03:09:55;100958.34;;;19.10;53.91
61710;BME280;47633;51.494;5.386;2022-10-16T03:12:21;100956.66;;;19.09;53.81
61710;BME280;47633;51.494;5.386;2022-10-16T03:14:46;100946.97;;;19.09;54.03
61710;BME280;47633;51.494;5.386;2022-10-16T03:17:12;100940.50;;;19.02;53.98
61710;BME280;47633;51.494;5.386;2022-10-16T03:19:38;100954.28;;;19.06;53.97
61710;BME280;47633;51.494;5.386;2022-10-16T03:22:03;100969.88;;;19.09;53.95
61710;BME280;47633;51.494;5.386;2022-10-16T03:24:29;100958.03;;;19.03;53.87
61710;BME280;47633;51.494;5.386;2022-10-16T03:26:54;100955.38;;;19.03;53.84
61710;BME280;47633;51.494;5.386;2022-10-16T03:29:19;100963.31;;;19.03;53.79
61710;BME280;47633;51.494;5.386;2022-10-16T03:31:45;100979.59;;;19.08;53.90
61710;BME280;47633;51.494;5.386;2022-10-16T03:34:10;100973.75;;;19.05;53.69
61710;BME280;47633;51.494;5.386;2022-10-16T03:36:35;100967.16;;;18.99;53.88
61710;BME280;47633;51.494;5.386;2022-10-16T03:39:01;100960.09;;;18.99;54.17
61710;BME280;47633;51.494;5.386;2022-10-16T03:41:26;100968.97;;;18.98;54.08
61710;BME280;47633;51.494;5.386;2022-10-16T03:43:51;100985.84;;;19.07;53.90
61710;BME280;47633;51.494;5.386;2022-10-16T03:46:17;100985.66;;;18.99;54.10
61710;BME280;47633;51.494;5.386;2022-10-16T03:48:42;100994.31;;;19.01;54.34
61710;BME280;47633;51.494;5.386;2022-10-16T03:51:07;100990.94;;;18.99;53.95
61710;BME280;47633;51.494;5.386;2022-10-16T03:53:33;100995.00;;;19.03;53.92
61710;BME280;47633;51.494;5.386;2022-10-16T03:55:58;101001.81;;;19.06;53.82
61710;BME280;47633;51.494;5.386;2022-10-16T03:58:23;100995.00;;;19.03;54.12
61710;BME280;47633;51.494;5.386;2022-10-16T04:00:49;100991.06;;;18.97;53.70
61710;BME280;47633;51.494;5.386;2022-10-16T04:03:14;101003.63;;;19.05;54.09
61710;BME280;47633;51.494;5.386;2022-10-16T04:05:39;100982.06;;;19.00;53.86
61710;BME280;47633;51.494;5.386;2022-10-16T04:08:05;100998.34;;;19.05;54.00
61710;BME280;47633;51.494;5.386;2022-10-16T04:10:31;100986.75;;;18.96;53.76
61710;BME280;47633;51.494;5.386;2022-10-16T04:12:56;101000.53;;;19.00;53.81
61710;BME280;47633;51.494;5.386;2022-10-16T04:15:22;101000.53;;;19.00;54.16
61710;BME280;47633;51.494;5.386;2022-10-16T04:17:48;100988.28;;;18.99;53.95
61710;BME280;47633;51.494;5.386;2022-10-16T04:20:14;100997.44;;;18.95;53.91
61710;BME280;47633;51.494;5.386;2022-10-16T04:22:39;101003.06;;;19.01;54.05
61710;BME280;47633;51.494;5.386;2022-10-16T04:25:04;100988.66;;;18.94;53.85
61710;BME280;47633;51.494;5.386;2022-10-16T04:27:30;101006.41;;;19.03;53.98
61710;BME280;47633;51.494;5.386;2022-10-16T04:29:59;100989.41;;;18.96;53.90
61710;BME280;47633;51.494;5.386;2022-10-16T04:32:26;100996.78;;;19.02;54.05
61710;BME280;47633;51.494;5.386;2022-10-16T04:34:51;100987.72;;;18.95;53.88
61710;BME280;47633;51.494;5.386;2022-10-16T04:37:17;101005.94;;;18.98;53.88
61710;BME280;47633;51.494;5.386;2022-10-16T04:39:42;101005.25;;;18.96;53.91
61710;BME280;47633;51.494;5.386;2022-10-16T04:42:07;101000.47;;;18.90;53.80
61710;BME280;47633;51.494;5.386;2022-10-16T04:44:33;101008.13;;;18.93;54.00
61710;BME280;47633;51.494;5.386;2022-10-16T04:46:58;101023.00;;;18.94;53.89
61710;BME280;47633;51.494;5.386;2022-10-16T04:49:23;101023.00;;;18.94;54.06
61710;BME280;47633;51.494;5.386;2022-10-16T04:51:49;101029.72;;;18.98;54.14
61710;BME280;47633;51.494;5.386;2022-10-16T04:54:14;101037.66;;;18.98;53.83
61710;BME280;47633;51.494;5.386;2022-10-16T04:56:39;101042.09;;;18.98;53.95
61710;BME280;47633;51.494;5.386;2022-10-16T04:59:16;101035.25;;;18.95;54.10
61710;BME280;47633;51.494;5.386;2022-10-16T05:01:41;101041.97;;;18.99;54.17
61710;BME280;47633;51.494;5.386;2022-10-16T05:04:07;101036.31;;;18.93;53.96
61710;BME280;47633;51.494;5.386;2022-10-16T05:06:32;101045.22;;;18.92;53.89
61710;BME280;47633;51.494;5.386;2022-10-16T05:08:57;101052.19;;;18.93;53.78
61710;BME280;47633;51.494;5.386;2022-10-16T05:11:23;101059.16;;;18.94;53.75
61710;BME280;47633;51.494;5.386;2022-10-16T05:13:48;101049.78;;;18.90;53.97
61710;BME280;47633;51.494;5.386;2022-10-16T05:16:13;101066.81;;;18.97;54.01
61710;BME280;47633;51.494;5.386;2022-10-16T05:18:38;101066.69;;;18.98;53.80
61710;BME280;47633;51.494;5.386;2022-10-16T05:21:04;101068.50;;;18.98;53.93
61710;BME280;47633;51.494;5.386;2022-10-16T05:23:30;101059.84;;;18.96;53.79
61710;BME280;47633;51.494;5.386;2022-10-16T05:25:57;101069.34;;;18.98;54.00
61710;BME280;47633;51.494;5.386;2022-10-16T05:28:27;101056.75;;;18.91;53.96
61710;BME280;47633;51.494;5.386;2022-10-16T05:30:53;101063.72;;;18.92;53.82
61710;BME280;47633;51.494;5.386;2022-10-16T05:33:24;101072.09;;;18.97;53.92
61710;BME280;47633;51.494;5.386;2022-10-16T05:35:50;101067.31;;;18.91;53.82
61710;BME280;47633;51.494;5.386;2022-10-16T05:38:16;101062.88;;;18.91;54.03
61710;BME280;47633;51.494;5.386;2022-10-16T05:40:42;101068.03;;;18.93;54.11
61710;BME280;47633;51.494;5.386;2022-10-16T05:43:07;101085.75;;;19.02;54.05
61710;BME280;47633;51.494;5.386;2022-10-16T05:45:33;101080.16;;;18.95;54.06
61710;BME280;47633;51.494;5.386;2022-10-16T05:47:59;101091.41;;;18.97;53.77
61710;BME280;47633;51.494;5.386;2022-10-16T05:50:24;101111.81;;;19.07;53.99
61710;BME280;47633;51.494;5.386;2022-10-16T05:52:49;101105.69;;;19.06;53.84
61710;BME280;47633;51.494;5.386;2022-10-16T05:55:15;101108.91;;;19.10;53.70
61710;BME280;47633;51.494;5.386;2022-10-16T05:57:40;101104.13;;;19.03;53.86
61710;BME280;47633;51.494;5.386;2022-10-16T06:00:06;101120.94;;;19.14;53.93
61710;BME280;47633;51.494;5.386;2022-10-16T06:02:31;101101.03;;;18.98;53.53
61710;BME280;47633;51.494;5.386;2022-10-16T06:04:57;101125.22;;;19.15;53.41
61710;BME280;47633;51.494;5.386;2022-10-16T06:07:22;101112.50;;;19.09;53.59
61710;BME280;47633;51.494;5.386;2022-10-16T06:09:52;101121.75;;;19.14;53.74
61710;BME280;47633;51.494;5.386;2022-10-16T06:12:17;101123.81;;;19.11;53.89
61710;BME280;47633;51.494;5.386;2022-10-16T06:14:43;101122.25;;;19.08;53.62
61710;BME280;47633;51.494;5.386;2022-10-16T06:17:08;101136.78;;;19.14;53.76
61710;BME280;47633;51.494;5.386;2022-10-16T06:19:33;101136.28;;;19.09;53.67
61710;BME280;47633;51.494;5.386;2022-10-16T06:21:58;101146.38;;;19.15;53.58
61710;BME280;47633;51.494;5.386;2022-10-16T06:24:24;101160.91;;;19.20;53.66
61710;BME280;47633;51.494;5.386;2022-10-16T06:26:50;101155.16;;;19.15;53.70
61710;BME280;47633;51.494;5.386;2022-10-16T06:29:15;101138.59;;;19.02;53.70
61710;BME280;47633;51.494;5.386;2022-10-16T06:31:40;101174.81;;;19.23;53.44
61710;BME280;47633;51.494;5.386;2022-10-16T06:34:07;101179.03;;;19.25;53.56
61710;BME280;47633;51.494;5.386;2022-10-16T06:36:35;101183.44;;;19.25;53.67
61710;BME280;47633;51.494;5.386;2022-10-16T06:39:01;101182.88;;;19.21;53.23
61710;BME280;47633;51.494;5.386;2022-10-16T06:41:26;101196.66;;;19.25;53.83
61710;BME280;47633;51.494;5.386;2022-10-16T06:43:51;101187.06;;;19.24;53.58
61710;BME280;47633;51.494;5.386;2022-10-16T06:46:20;101190.66;;;19.23;53.57
61710;BME280;47633;51.494;5.386;2022-10-16T06:48:46;101202.94;;;19.24;53.73
61710;BME280;47633;51.494;5.386;2022-10-16T06:51:16;101180.72;;;19.03;53.51
61710;BME280;47633;51.494;5.386;2022-10-16T06:53:45;101193.91;;;19.15;53.89
61710;BME280;47633;51.494;5.386;2022-10-16T06:56:15;101217.78;;;19.25;53.68
61710;BME280;47633;51.494;5.386;2022-10-16T06:58:42;101208.47;;;19.20;53.74
61710;BME280;47633;51.494;5.386;2022-10-16T07:01:08;101218.41;;;19.28;53.82
61710;BME280;47633;51.494;5.386;2022-10-16T07:03:36;101204.00;;;19.21;53.96
61710;BME280;47633;51.494;5.386;2022-10-16T07:06:04;101221.88;;;19.29;54.28
61710;BME280;47633;51.494;5.386;2022-10-16T07:08:34;101221.88;;;19.29;54.09
61710;BME280;47633;51.494;5.386;2022-10-16T07:11:07;101227.06;;;19.30;54.02
61710;BME280;47633;51.494;5.386;2022-10-16T07:13:36;101233.91;;;19.33;54.14
61710;BME280;47633;51.494;5.386;2022-10-16T07:16:06;101221.44;;;19.24;54.00
61710;BME280;47633;51.494;5.386;2022-10-16T07:18:32;101245.19;;;19.35;54.32
61710;BME280;47633;51.494;5.386;2022-10-16T07:21:08;101240.97;;;19.32;54.31
61710;BME280;47633;51.494;5.386;2022-10-16T07:23:33;101246.88;;;19.36;54.47
61710;BME280;47633;51.494;5.386;2022-10-16T07:25:59;101246.13;;;19.34;54.42
61710;BME280;47633;51.494;5.386;2022-10-16T07:28:24;101258.16;;;19.38;54.42
61710;BME280;47633;51.494;5.386;2022-10-16T07:30:50;101253.00;;;19.36;54.19
61710;BME280;47633;51.494;5.386;2022-10-16T07:33:15;101249.03;;;19.31;54.43
61710;BME280;47633;51.494;5.386;2022-10-16T07:35:59;101254.19;;;19.32;54.54
61710;BME280;47633;51.494;5.386;2022-10-16T07:38:24;101268.97;;;19.35;54.60
61710;BME280;47633;51.494;5.386;2022-10-16T07:40:59;101274.97;;;19.37;54.76
61710;BME280;47633;51.494;5.386;2022-10-16T07:43:26;101286.63;;;19.46;54.66
61710;BME280;47633;51.494;5.386;2022-10-16T07:45:51;101283.47;;;19.40;54.56
61710;BME280;47633;51.494;5.386;2022-10-16T07:48:17;101292.28;;;19.41;54.61
61710;BME280;47633;51.494;5.386;2022-10-16T07:50:43;101303.06;;;19.49;54.55
61710;BME280;47633;51.494;5.386;2022-10-16T07:53:12;101308.22;;;19.51;54.77
61710;BME280;47633;51.494;5.386;2022-10-16T07:55:38;101311.72;;;19.51;54.68
61710;BME280;47633;51.494;5.386;2022-10-16T07:58:04;101310.03;;;19.50;54.73
61710;BME280;47633;51.494;5.386;2022-10-16T08:00:30;101308.34;;;19.49;55.02
61710;BME280;47633;51.494;5.386;2022-10-16T08:02:56;101310.28;;;19.47;55.17
61710;BME280;47633;51.494;5.386;2022-10-16T08:05:25;101310.16;;;19.49;54.81
61710;BME280;47633;51.494;5.386;2022-10-16T08:07:50;101315.34;;;19.50;55.10
61710;BME280;47633;51.494;5.386;2022-10-16T08:10:17;101326.25;;;19.57;54.82
61710;BME280;47633;51.494;5.386;2022-10-16T08:12:42;101321.22;;;19.43;54.75
61710;BME280;47633;51.494;5.386;2022-10-16T08:15:08;101334.44;;;19.54;55.14
61710;BME280;47633;51.494;5.386;2022-10-16T08:17:33;101341.88;;;19.60;55.57
61710;BME280;47633;51.494;5.386;2022-10-16T08:19:59;101350.38;;;19.64;56.13
61710;BME280;47633;51.494;5.386;2022-10-16T08:22:24;101336.22;;;19.53;56.48
61710;BME280;47633;51.494;5.386;2022-10-16T08:24:49;101330.78;;;19.55;56.69
61710;BME280;47633;51.494;5.386;2022-10-16T08:27:14;101351.09;;;19.66;57.00
61710;BME280;47633;51.494;5.386;2022-10-16T08:29:40;101350.28;;;19.65;56.80
61710;BME280;47633;51.494;5.386;2022-10-16T08:32:05;101337.41;;;19.61;56.91
61710;BME280;47633;51.494;5.386;2022-10-16T08:34:30;101355.56;;;19.65;56.64
61710;BME280;47633;51.494;5.386;2022-10-16T08:36:56;101349.81;;;19.60;56.67
61710;BME280;47633;51.494;5.386;2022-10-16T08:39:21;101364.94;;;19.69;56.84
61710;BME280;47633;51.494;5.386;2022-10-16T08:41:59;101380.81;;;19.69;56.41
61710;BME280;47633;51.494;5.386;2022-10-16T08:45:00;101381.63;;;19.70;56.57
61710;BME280;47633;51.494;5.386;2022-10-16T08:50:26;101379.34;;;19.65;56.40
61710;BME280;47633;51.494;5.386;2022-10-16T08:52:53;101385.94;;;19.71;56.64
61710;BME280;47633;51.494;5.386;2022-10-16T08:55:42;101379.59;;;19.62;56.67
61710;BME280;47633;51.494;5.386;2022-10-16T08:58:15;101387.88;;;19.69;56.96
61710;BME280;47633;51.494;5.386;2022-10-16T09:00:42;101390.28;;;19.72;56.68
61710;BME280;47633;51.494;5.386;2022-10-16T09:03:23;101377.41;;;19.67;56.66
61710;BME280;47633;51.494;5.386;2022-10-16T09:06:06;101394.63;;;19.73;56.71
61710;BME280;47633;51.494;5.386;2022-10-16T09:14:28;101406.03;;;19.73;56.66
61710;BME280;47633;51.494;5.386;2022-10-16T09:17:22;101421.88;;;19.73;56.85
61710;BME280;47633;51.494;5.386;2022-10-16T09:22:39;101420.94;;;19.74;56.88
61710;BME280;47633;51.494;5.386;2022-10-16T09:25:16;101425.38;;;19.74;56.82
61710;BME280;47633;51.494;5.386;2022-10-16T09:27:44;101408.19;;;19.68;56.68
61710;BME280;47633;51.494;5.386;2022-10-16T09:30:16;101390.41;;;19.59;56.85
61710;BME280;47633;51.494;5.386;2022-10-16T09:32:43;101426.13;;;19.76;56.71
61710;BME280;47633;51.494;5.386;2022-10-16T09:35:14;101433.09;;;19.77;57.28
61710;BME280;47633;51.494;5.386;2022-10-16T09:37:41;101425.25;;;19.75;56.88
61710;BME280;47633;51.494;5.386;2022-10-16T09:40:12;101427.88;;;19.75;56.91
61710;BME280;47633;51.494;5.386;2022-10-16T09:42:38;101425.16;;;19.77;56.64
61710;BME280;47633;51.494;5.386;2022-10-16T09:45:04;101426.13;;;19.76;56.87
61710;BME280;47633;51.494;5.386;2022-10-16T09:47:31;101416.59;;;19.73;56.72
61710;BME280;47633;51.494;5.386;2022-10-16T09:49:58;101420.72;;;19.78;56.66
61710;BME280;47633;51.494;5.386;2022-10-16T09:52:28;101418.28;;;19.74;57.01
61710;BME280;47633;51.494;5.386;2022-10-16T09:54:58;101417.31;;;19.75;56.86
61710;BME280;47633;51.494;5.386;2022-10-16T09:57:24;101421.88;;;19.73;57.00
61710;BME280;47633;51.494;5.386;2022-10-16T09:59:52;101431.91;;;19.81;56.82
61710;BME280;47633;51.494;5.386;2022-10-16T10:02:20;101426.47;;;19.71;56.86
61710;BME280;47633;51.494;5.386;2022-10-16T10:04:52;101434.53;;;19.81;57.08
61710;BME280;47633;51.494;5.386;2022-10-16T10:07:28;101441.53;;;19.82;57.02
61710;BME280;47633;51.494;5.386;2022-10-16T10:09:57;101435.25;;;19.83;56.99
61710;BME280;47633;51.494;5.386;2022-10-16T10:12:27;101426.97;;;19.77;56.98
61710;BME280;47633;51.494;5.386;2022-10-16T10:14:56;101444.06;;;19.84;56.44
61710;BME280;47633;51.494;5.386;2022-10-16T10:17:23;101445.84;;;19.83;57.03
61710;BME280;47633;51.494;5.386;2022-10-16T10:20:00;101436.06;;;19.72;56.87
61710;BME280;47633;51.494;5.386;2022-10-16T10:27:26;101453.03;;;19.92;56.89
61710;BME280;47633;51.494;5.386;2022-10-16T10:30:04;101454.63;;;19.95;56.55
61710;BME280;47633;51.494;5.386;2022-10-16T10:35:22;101468.78;;;19.94;56.32
61710;BME280;47633;51.494;5.386;2022-10-16T10:38:30;101473.38;;;19.92;56.48
61710;BME280;47633;51.494;5.386;2022-10-16T10:43:44;101460.88;;;19.94;56.46
61710;BME280;47633;51.494;5.386;2022-10-16T10:46:22;101439.97;;;19.80;56.14
61710;BME280;47633;51.494;5.386;2022-10-16T10:51:54;101473.84;;;19.97;56.01
61710;BME280;47633;51.494;5.386;2022-10-16T10:54:42;101469.63;;;19.94;55.96
61710;BME280;47633;51.494;5.386;2022-10-16T10:57:39;101471.31;;;19.96;56.06
61710;BME280;47633;51.494;5.386;2022-10-16T11:03:04;101473.97;;;19.96;55.93
61710;BME280;47633;51.494;5.386;2022-10-16T11:05:41;101472.28;;;19.94;55.66
61710;BME280;47633;51.494;5.386;2022-10-16T11:08:17;101429.13;;;19.71;56.04
61710;BME280;47633;51.494;5.386;2022-10-16T11:11:02;101480.94;;;19.97;55.87
61710;BME280;47633;51.494;5.386;2022-10-16T11:14:03;101480.09;;;19.96;56.06
61710;BME280;47633;51.494;5.386;2022-10-16T11:16:38;101475.53;;;19.98;56.18
61710;BME280;47633;51.494;5.386;2022-10-16T11:20:00;101483.13;;;20.03;56.01
61710;BME280;47633;51.494;5.386;2022-10-16T11:22:11;101483.94;;;20.03;56.07
61710;BME280;47633;51.494;5.386;2022-10-16T11:24:45;101476.59;;;20.07;55.48
61710;BME280;47633;51.494;5.386;2022-10-16T11:27:21;101461.22;;;20.01;55.70
61710;BME280;47633;51.494;5.386;2022-10-16T11:29:58;101476.13;;;20.13;55.47
61710;BME280;47633;51.494;5.386;2022-10-16T11:32:32;101462.06;;;20.13;55.45
61710;BME280;47633;51.494;5.386;2022-10-16T11:35:10;101478.97;;;20.21;55.42
61710;BME280;47633;51.494;5.386;2022-10-16T11:37:41;101473.31;;;20.26;55.22
61710;BME280;47633;51.494;5.386;2022-10-16T11:40:29;101479.56;;;20.36;55.02
61710;BME280;47633;51.494;5.386;2022-10-16T11:43:04;101489.28;;;20.47;54.40
61710;BME280;47633;51.494;5.386;2022-10-16T11:45:41;101477.72;;;20.48;54.56
61710;BME280;47633;51.494;5.386;2022-10-16T11:51:07;101489.22;;;20.58;53.96
61710;BME280;47633;51.494;5.386;2022-10-16T11:53:55;101487.31;;;20.60;53.91
61710;BME280;47633;51.494;5.386;2022-10-16T11:56:24;101488.53;;;20.56;54.19
61710;BME280;47633;51.494;5.386;2022-10-16T11:58:59;101489.09;;;20.60;54.18
61710;BME280;47633;51.494;5.386;2022-10-16T12:09:27;101472.03;;;20.64;54.10
61710;BME280;47633;51.494;5.386;2022-10-16T12:11:54;101481.31;;;20.70;53.88
61710;BME280;47633;51.494;5.386;2022-10-16T12:14:33;101487.13;;;20.84;53.50
61710;BME280;47633;51.494;5.386;2022-10-16T12:17:20;101489.53;;;20.88;53.52
61710;BME280;47633;51.494;5.386;2022-10-16T12:19:59;101502.28;;;20.94;53.38
61710;BME280;47633;51.494;5.386;2022-10-16T12:22:28;101501.53;;;20.92;53.55
61710;BME280;47633;51.494;5.386;2022-10-16T12:24:55;101497.84;;;20.83;53.95
61710;BME280;47633;51.494;5.386;2022-10-16T12:27:31;101495.72;;;20.77;54.08
61710;BME280;47633;51.494;5.386;2022-10-16T12:30:02;101509.47;;;20.71;54.21
61710;BME280;47633;51.494;5.386;2022-10-16T12:32:36;101500.44;;;20.62;54.16
61710;BME280;47633;51.494;5.386;2022-10-16T12:35:02;101505.13;;;20.58;54.35
61710;BME280;47633;51.494;5.386;2022-10-16T12:37:32;101499.38;;;20.53;54.58
61710;BME280;47633;51.494;5.386;2022-10-16T12:39:59;101508.00;;;20.55;54.34
61710;BME280;47633;51.494;5.386;2022-10-16T12:42:35;101484.97;;;20.46;54.47
61710;BME280;47633;51.494;5.386;2022-10-16T12:45:02;101499.38;;;20.53;54.46
61710;BME280;47633;51.494;5.386;2022-10-16T12:47:48;101503.00;;;20.52;54.63
61710;BME280;47633;51.494;5.386;2022-10-16T12:50:38;101496.13;;;20.50;55.05
61710;BME280;47633;51.494;5.386;2022-10-16T12:53:18;101501.44;;;20.50;54.81
61710;BME280;47633;51.494;5.386;2022-10-16T12:55:59;101483.28;;;20.45;55.05
61710;BME280;47633;51.494;5.386;2022-10-16T12:59:35;101477.34;;;20.53;54.78
61710;BME280;47633;51.494;5.386;2022-10-16T13:07:17;101476.09;;;20.79;53.35
61710;BME280;47633;51.494;5.386;2022-10-16T13:10:26;101489.16;;;20.92;53.69
61710;BME280;47633;51.494;5.386;2022-10-16T13:13:24;101492.25;;;20.97;53.31
61710;BME280;47633;51.494;5.386;2022-10-16T13:16:13;101490.44;;;20.98;52.87
61710;BME280;47633;51.494;5.386;2022-10-16T13:18:48;101497.75;;;21.06;52.81
61710;BME280;47633;51.494;5.386;2022-10-16T13:24:16;101499.44;;;21.07;53.03
61710;BME280;47633;51.494;5.386;2022-10-16T13:27:07;101487.53;;;21.01;53.12
61710;BME280;47633;51.494;5.386;2022-10-16T13:29:35;101502.34;;;21.04;52.99
61710;BME280;47633;51.494;5.386;2022-10-16T13:32:06;101500.53;;;21.04;53.00
61710;BME280;47633;51.494;5.386;2022-10-16T13:34:32;101514.97;;;21.11;52.86
61710;BME280;47633;51.494;5.386;2022-10-16T13:37:00;101510.56;;;21.00;53.20
61710;BME280;47633;51.494;5.386;2022-10-16T13:39:30;101517.19;;;20.95;53.20
61710;BME280;47633;51.494;5.386;2022-10-16T13:44:26;101525.38;;;20.92;53.47
61710;BME280;47633;51.494;5.386;2022-10-16T13:46:59;101512.78;;;20.84;53.35
61710;BME280;47633;51.494;5.386;2022-10-16T13:49:25;101523.22;;;20.97;53.07
61710;BME280;47633;51.494;5.386;2022-10-16T13:51:58;101508.28;;;20.96;53.06
61710;BME280;47633;51.494;5.386;2022-10-16T13:54:26;101525.38;;;21.03;52.87
61710;BME280;47633;51.494;5.386;2022-10-16T13:56:52;101515.97;;;20.99;52.87
61710;BME280;47633;51.494;5.386;2022-10-16T13:59:36;101522.31;;;21.08;52.66
61710;BME280;47633;51.494;5.386;2022-10-16T14:02:25;101524.00;;;21.09;52.90
61710;BME280;47633;51.494;5.386;2022-10-16T14:04:52;101528.59;;;21.07;52.63